Carson, New Mexico
Current Conditions -  °F | °C
As of 12:15 AM on Sunday 23 Nov 2014 (Local Time) from KSKX Reporting Station
Broken Clouds Broken Clouds  
Wind Chill: 32°   Ceiling: 11000
Heat Index: 37°   Visibility: 10mi
Dew Point: 23°   Wind: 7mph
Humidity: 56%   Direction: 310°NW
Pressure: 29.82"   Gusts: NA
Location:  36.36°N, 105.77°W
Report Text: KSKX 230715Z AUTO 31006KT 10SM FEW046 SCT070 BKN110 03/M05 A2982 RMK AO1
Loading
Personal Weather Stations






























Interactive Weather Map New forecast layout! Learn more

10-Day Weather Forecast

Advertisements
Track Severe Weather on mobile